sensor_id;sensor_type;location;lat;lon;timestamp;P1;durP1;ratioP1;P2;durP2;ratioP2
3647;SDS011;1840;48.892;15.312;2022-08-03T00:01:52;11.40;;;6.57;;
3647;SDS011;1840;48.892;15.312;2022-08-03T00:04:21;10.20;;;7.40;;
3647;SDS011;1840;48.892;15.312;2022-08-03T00:06:59;12.87;;;7.57;;
3647;SDS011;1840;48.892;15.312;2022-08-03T00:09:29;8.53;;;6.70;;
3647;SDS011;1840;48.892;15.312;2022-08-03T00:12:01;18.33;;;8.07;;
3647;SDS011;1840;48.892;15.312;2022-08-03T00:14:29;10.47;;;7.27;;
3647;SDS011;1840;48.892;15.312;2022-08-03T00:16:57;9.50;;;7.33;;
3647;SDS011;1840;48.892;15.312;2022-08-03T00:19:25;10.30;;;7.30;;
3647;SDS011;1840;48.892;15.312;2022-08-03T00:21:54;14.13;;;7.53;;
3647;SDS011;1840;48.892;15.312;2022-08-03T00:24:22;10.87;;;8.20;;
3647;SDS011;1840;48.892;15.312;2022-08-03T00:26:51;10.10;;;7.33;;
3647;SDS011;1840;48.892;15.312;2022-08-03T00:29:19;10.33;;;7.67;;
3647;SDS011;1840;48.892;15.312;2022-08-03T00:31:47;12.40;;;7.80;;
3647;SDS011;1840;48.892;15.312;2022-08-03T00:34:24;9.73;;;7.93;;
3647;SDS011;1840;48.892;15.312;2022-08-03T00:37:12;8.37;;;6.43;;
3647;SDS011;1840;48.892;15.312;2022-08-03T00:39:41;8.50;;;6.50;;
3647;SDS011;1840;48.892;15.312;2022-08-03T00:42:12;11.40;;;7.50;;
3647;SDS011;1840;48.892;15.312;2022-08-03T00:44:41;10.73;;;8.43;;
3647;SDS011;1840;48.892;15.312;2022-08-03T00:47:11;10.47;;;8.27;;
3647;SDS011;1840;48.892;15.312;2022-08-03T00:49:39;15.20;;;7.93;;
3647;SDS011;1840;48.892;15.312;2022-08-03T00:52:08;9.90;;;8.10;;
3647;SDS011;1840;48.892;15.312;2022-08-03T00:54:37;11.43;;;7.97;;
3647;SDS011;1840;48.892;15.312;2022-08-03T00:57:06;14.10;;;8.20;;
3647;SDS011;1840;48.892;15.312;2022-08-03T00:59:36;9.40;;;7.63;;
3647;SDS011;1840;48.892;15.312;2022-08-03T01:02:04;11.87;;;7.20;;
3647;SDS011;1840;48.892;15.312;2022-08-03T01:04:33;8.60;;;7.43;;
3647;SDS011;1840;48.892;15.312;2022-08-03T01:07:02;11.00;;;7.40;;
3647;SDS011;1840;48.892;15.312;2022-08-03T01:09:37;11.47;;;8.10;;
3647;SDS011;1840;48.892;15.312;2022-08-03T01:12:13;14.10;;;8.23;;
3647;SDS011;1840;48.892;15.312;2022-08-03T01:14:50;15.23;;;9.10;;
3647;SDS011;1840;48.892;15.312;2022-08-03T01:17:23;9.63;;;7.60;;
3647;SDS011;1840;48.892;15.312;2022-08-03T01:20:01;12.10;;;7.60;;
3647;SDS011;1840;48.892;15.312;2022-08-03T01:22:39;11.93;;;7.97;;
3647;SDS011;1840;48.892;15.312;2022-08-03T01:25:23;11.70;;;8.47;;
3647;SDS011;1840;48.892;15.312;2022-08-03T01:28:04;15.63;;;8.60;;
3647;SDS011;1840;48.892;15.312;2022-08-03T01:30:47;10.30;;;7.30;;
3647;SDS011;1840;48.892;15.312;2022-08-03T01:33:21;13.70;;;8.10;;
3647;SDS011;1840;48.892;15.312;2022-08-03T01:35:56;11.07;;;8.40;;
3647;SDS011;1840;48.892;15.312;2022-08-03T01:38:29;13.53;;;8.10;;
3647;SDS011;1840;48.892;15.312;2022-08-03T01:41:01;9.37;;;7.03;;
3647;SDS011;1840;48.892;15.312;2022-08-03T01:43:32;18.13;;;8.00;;
3647;SDS011;1840;48.892;15.312;2022-08-03T01:46:24;9.87;;;8.10;;
3647;SDS011;1840;48.892;15.312;2022-08-03T01:48:54;9.97;;;7.80;;
3647;SDS011;1840;48.892;15.312;2022-08-03T01:51:24;11.33;;;7.80;;
3647;SDS011;1840;48.892;15.312;2022-08-03T01:54:13;10.40;;;7.87;;
3647;SDS011;1840;48.892;15.312;2022-08-03T01:56:42;11.53;;;8.13;;
3647;SDS011;1840;48.892;15.312;2022-08-03T01:59:11;19.60;;;8.17;;
3647;SDS011;1840;48.892;15.312;2022-08-03T02:01:44;10.20;;;7.20;;
3647;SDS011;1840;48.892;15.312;2022-08-03T02:04:33;13.90;;;8.07;;
3647;SDS011;1840;48.892;15.312;2022-08-03T02:07:02;10.50;;;7.40;;
3647;SDS011;1840;48.892;15.312;2022-08-03T02:09:30;10.23;;;7.20;;
3647;SDS011;1840;48.892;15.312;2022-08-03T02:11:59;11.33;;;8.43;;
3647;SDS011;1840;48.892;15.312;2022-08-03T02:14:28;8.80;;;6.63;;
3647;SDS011;1840;48.892;15.312;2022-08-03T02:16:59;12.33;;;8.10;;
3647;SDS011;1840;48.892;15.312;2022-08-03T02:19:28;10.40;;;7.33;;
3647;SDS011;1840;48.892;15.312;2022-08-03T02:22:01;10.77;;;8.17;;
3647;SDS011;1840;48.892;15.312;2022-08-03T02:24:30;9.10;;;7.77;;
3647;SDS011;1840;48.892;15.312;2022-08-03T02:26:59;10.70;;;8.10;;
3647;SDS011;1840;48.892;15.312;2022-08-03T02:29:30;9.50;;;7.43;;
3647;SDS011;1840;48.892;15.312;2022-08-03T02:32:07;8.73;;;6.50;;
3647;SDS011;1840;48.892;15.312;2022-08-03T02:34:39;12.90;;;7.10;;
3647;SDS011;1840;48.892;15.312;2022-08-03T02:37:09;10.20;;;7.73;;
3647;SDS011;1840;48.892;15.312;2022-08-03T02:39:38;16.83;;;9.77;;
3647;SDS011;1840;48.892;15.312;2022-08-03T02:42:08;11.77;;;8.07;;
3647;SDS011;1840;48.892;15.312;2022-08-03T02:44:38;9.67;;;7.73;;
3647;SDS011;1840;48.892;15.312;2022-08-03T02:47:14;14.20;;;8.60;;
3647;SDS011;1840;48.892;15.312;2022-08-03T02:49:47;15.37;;;8.13;;
3647;SDS011;1840;48.892;15.312;2022-08-03T02:52:18;9.97;;;7.77;;
3647;SDS011;1840;48.892;15.312;2022-08-03T02:54:49;10.00;;;7.90;;
3647;SDS011;1840;48.892;15.312;2022-08-03T02:57:21;11.20;;;8.13;;
3647;SDS011;1840;48.892;15.312;2022-08-03T02:59:51;11.43;;;8.63;;
3647;SDS011;1840;48.892;15.312;2022-08-03T03:02:22;12.47;;;8.17;;
3647;SDS011;1840;48.892;15.312;2022-08-03T03:04:52;9.67;;;7.57;;
3647;SDS011;1840;48.892;15.312;2022-08-03T03:07:42;13.50;;;8.87;;
3647;SDS011;1840;48.892;15.312;2022-08-03T03:10:17;11.33;;;7.60;;
3647;SDS011;1840;48.892;15.312;2022-08-03T03:12:46;16.83;;;8.53;;
3647;SDS011;1840;48.892;15.312;2022-08-03T03:15:16;9.97;;;7.27;;
3647;SDS011;1840;48.892;15.312;2022-08-03T03:17:46;12.63;;;7.43;;
3647;SDS011;1840;48.892;15.312;2022-08-03T03:20:15;11.67;;;8.13;;
3647;SDS011;1840;48.892;15.312;2022-08-03T03:22:55;20.27;;;9.50;;
3647;SDS011;1840;48.892;15.312;2022-08-03T03:25:26;13.00;;;8.03;;
3647;SDS011;1840;48.892;15.312;2022-08-03T03:27:55;10.40;;;7.97;;
3647;SDS011;1840;48.892;15.312;2022-08-03T03:30:24;11.73;;;8.50;;
3647;SDS011;1840;48.892;15.312;2022-08-03T03:32:54;17.83;;;9.07;;
3647;SDS011;1840;48.892;15.312;2022-08-03T03:35:23;15.03;;;9.77;;
3647;SDS011;1840;48.892;15.312;2022-08-03T03:37:52;16.33;;;10.40;;
3647;SDS011;1840;48.892;15.312;2022-08-03T03:40:21;13.20;;;9.80;;
3647;SDS011;1840;48.892;15.312;2022-08-03T03:42:49;13.27;;;8.90;;
3647;SDS011;1840;48.892;15.312;2022-08-03T03:45:17;13.83;;;10.00;;
3647;SDS011;1840;48.892;15.312;2022-08-03T03:47:46;10.13;;;8.03;;
3647;SDS011;1840;48.892;15.312;2022-08-03T03:50:17;12.00;;;8.80;;
3647;SDS011;1840;48.892;15.312;2022-08-03T03:52:45;12.70;;;8.40;;
3647;SDS011;1840;48.892;15.312;2022-08-03T03:55:14;13.30;;;7.87;;
3647;SDS011;1840;48.892;15.312;2022-08-03T03:57:44;13.03;;;8.30;;
3647;SDS011;1840;48.892;15.312;2022-08-03T04:00:13;9.33;;;7.47;;
3647;SDS011;1840;48.892;15.312;2022-08-03T04:02:42;12.57;;;8.93;;
3647;SDS011;1840;48.892;15.312;2022-08-03T04:05:11;13.00;;;8.03;;
3647;SDS011;1840;48.892;15.312;2022-08-03T04:08:12;14.43;;;9.50;;
3647;SDS011;1840;48.892;15.312;2022-08-03T04:11:02;12.47;;;9.10;;
3647;SDS011;1840;48.892;15.312;2022-08-03T04:13:38;10.47;;;8.67;;
3647;SDS011;1840;48.892;15.312;2022-08-03T04:16:11;11.70;;;8.20;;
3647;SDS011;1840;48.892;15.312;2022-08-03T04:18:41;22.40;;;10.53;;
3647;SDS011;1840;48.892;15.312;2022-08-03T04:21:14;13.17;;;9.40;;
3647;SDS011;1840;48.892;15.312;2022-08-03T04:23:47;15.37;;;9.87;;
3647;SDS011;1840;48.892;15.312;2022-08-03T04:26:20;13.33;;;9.00;;
3647;SDS011;1840;48.892;15.312;2022-08-03T04:28:50;14.00;;;8.93;;
3647;SDS011;1840;48.892;15.312;2022-08-03T04:31:21;16.53;;;11.07;;
3647;SDS011;1840;48.892;15.312;2022-08-03T04:33:51;15.13;;;10.37;;
3647;SDS011;1840;48.892;15.312;2022-08-03T04:36:21;14.60;;;10.97;;
3647;SDS011;1840;48.892;15.312;2022-08-03T04:38:54;16.30;;;11.63;;
3647;SDS011;1840;48.892;15.312;2022-08-03T04:41:27;18.93;;;11.33;;
3647;SDS011;1840;48.892;15.312;2022-08-03T04:43:57;37.00;;;12.50;;
3647;SDS011;1840;48.892;15.312;2022-08-03T04:46:27;26.80;;;12.33;;
3647;SDS011;1840;48.892;15.312;2022-08-03T04:48:58;17.70;;;11.53;;
3647;SDS011;1840;48.892;15.312;2022-08-03T04:51:27;16.97;;;11.43;;
3647;SDS011;1840;48.892;15.312;2022-08-03T04:53:57;15.70;;;10.80;;
3647;SDS011;1840;48.892;15.312;2022-08-03T04:56:25;18.30;;;11.27;;
3647;SDS011;1840;48.892;15.312;2022-08-03T04:58:54;15.93;;;11.10;;
3647;SDS011;1840;48.892;15.312;2022-08-03T05:01:22;31.87;;;10.90;;
3647;SDS011;1840;48.892;15.312;2022-08-03T05:03:51;21.63;;;13.20;;
3647;SDS011;1840;48.892;15.312;2022-08-03T05:06:19;20.03;;;10.97;;
3647;SDS011;1840;48.892;15.312;2022-08-03T05:08:50;23.00;;;12.03;;
3647;SDS011;1840;48.892;15.312;2022-08-03T05:11:20;20.70;;;11.70;;
3647;SDS011;1840;48.892;15.312;2022-08-03T05:13:48;19.60;;;13.67;;
3647;SDS011;1840;48.892;15.312;2022-08-03T05:16:16;15.77;;;11.40;;
3647;SDS011;1840;48.892;15.312;2022-08-03T05:18:44;14.80;;;11.23;;
3647;SDS011;1840;48.892;15.312;2022-08-03T05:21:12;14.83;;;11.60;;
3647;SDS011;1840;48.892;15.312;2022-08-03T05:23:42;24.40;;;13.00;;
3647;SDS011;1840;48.892;15.312;2022-08-03T05:26:10;17.90;;;12.60;;
3647;SDS011;1840;48.892;15.312;2022-08-03T05:28:40;16.50;;;13.30;;
3647;SDS011;1840;48.892;15.312;2022-08-03T05:31:16;15.87;;;12.43;;
3647;SDS011;1840;48.892;15.312;2022-08-03T05:33:45;18.03;;;12.47;;
3647;SDS011;1840;48.892;15.312;2022-08-03T05:36:14;16.97;;;12.93;;
3647;SDS011;1840;48.892;15.312;2022-08-03T05:38:42;21.47;;;11.97;;
3647;SDS011;1840;48.892;15.312;2022-08-03T05:41:10;12.63;;;9.93;;
3647;SDS011;1840;48.892;15.312;2022-08-03T05:43:50;14.20;;;10.13;;
3647;SDS011;1840;48.892;15.312;2022-08-03T05:46:19;16.23;;;11.60;;
3647;SDS011;1840;48.892;15.312;2022-08-03T05:48:48;14.90;;;11.63;;
3647;SDS011;1840;48.892;15.312;2022-08-03T05:51:16;18.83;;;12.70;;
3647;SDS011;1840;48.892;15.312;2022-08-03T05:53:44;15.40;;;11.10;;
3647;SDS011;1840;48.892;15.312;2022-08-03T05:56:12;16.93;;;12.50;;
3647;SDS011;1840;48.892;15.312;2022-08-03T05:58:42;15.90;;;10.77;;
3647;SDS011;1840;48.892;15.312;2022-08-03T06:01:13;23.20;;;12.50;;
3647;SDS011;1840;48.892;15.312;2022-08-03T06:03:42;22.13;;;12.67;;
3647;SDS011;1840;48.892;15.312;2022-08-03T06:06:10;14.43;;;10.97;;
3647;SDS011;1840;48.892;15.312;2022-08-03T06:08:39;15.97;;;11.93;;
3647;SDS011;1840;48.892;15.312;2022-08-03T06:11:07;16.43;;;11.10;;
3647;SDS011;1840;48.892;15.312;2022-08-03T06:13:36;15.57;;;10.60;;
3647;SDS011;1840;48.892;15.312;2022-08-03T06:16:04;14.97;;;10.53;;
3647;SDS011;1840;48.892;15.312;2022-08-03T06:18:34;21.57;;;10.30;;
3647;SDS011;1840;48.892;15.312;2022-08-03T06:21:03;13.93;;;9.70;;
3647;SDS011;1840;48.892;15.312;2022-08-03T06:23:41;10.90;;;9.37;;
3647;SDS011;1840;48.892;15.312;2022-08-03T06:26:19;14.33;;;9.00;;
3647;SDS011;1840;48.892;15.312;2022-08-03T06:28:47;11.83;;;9.20;;
3647;SDS011;1840;48.892;15.312;2022-08-03T06:31:19;12.37;;;9.43;;
3647;SDS011;1840;48.892;15.312;2022-08-03T06:33:49;14.53;;;9.47;;
3647;SDS011;1840;48.892;15.312;2022-08-03T06:36:37;12.03;;;8.60;;
3647;SDS011;1840;48.892;15.312;2022-08-03T06:39:06;10.90;;;8.67;;
3647;SDS011;1840;48.892;15.312;2022-08-03T06:41:34;10.77;;;8.90;;
3647;SDS011;1840;48.892;15.312;2022-08-03T06:44:10;12.70;;;8.53;;
3647;SDS011;1840;48.892;15.312;2022-08-03T06:46:38;12.27;;;8.37;;
3647;SDS011;1840;48.892;15.312;2022-08-03T06:49:08;9.70;;;7.23;;
3647;SDS011;1840;48.892;15.312;2022-08-03T06:51:37;12.07;;;7.90;;
3647;SDS011;1840;48.892;15.312;2022-08-03T06:54:26;8.83;;;6.40;;
3647;SDS011;1840;48.892;15.312;2022-08-03T06:56:58;9.73;;;7.43;;
3647;SDS011;1840;48.892;15.312;2022-08-03T06:59:26;10.07;;;7.50;;
3647;SDS011;1840;48.892;15.312;2022-08-03T07:02:14;11.87;;;6.80;;
3647;SDS011;1840;48.892;15.312;2022-08-03T07:04:46;10.50;;;7.60;;
3647;SDS011;1840;48.892;15.312;2022-08-03T07:07:15;11.10;;;7.17;;
3647;SDS011;1840;48.892;15.312;2022-08-03T07:09:44;10.90;;;7.07;;
3647;SDS011;1840;48.892;15.312;2022-08-03T07:12:23;22.53;;;8.03;;
3647;SDS011;1840;48.892;15.312;2022-08-03T07:14:52;12.60;;;7.17;;
3647;SDS011;1840;48.892;15.312;2022-08-03T07:17:26;11.10;;;7.40;;
3647;SDS011;1840;48.892;15.312;2022-08-03T07:19:57;16.63;;;7.03;;
3647;SDS011;1840;48.892;15.312;2022-08-03T07:22:25;11.40;;;6.70;;
3647;SDS011;1840;48.892;15.312;2022-08-03T07:24:54;8.73;;;6.70;;
3647;SDS011;1840;48.892;15.312;2022-08-03T07:27:22;11.60;;;7.47;;
3647;SDS011;1840;48.892;15.312;2022-08-03T07:29:52;9.70;;;6.87;;
3647;SDS011;1840;48.892;15.312;2022-08-03T07:32:20;8.20;;;5.97;;
3647;SDS011;1840;48.892;15.312;2022-08-03T07:34:48;8.33;;;6.20;;
3647;SDS011;1840;48.892;15.312;2022-08-03T07:37:17;7.93;;;6.07;;
3647;SDS011;1840;48.892;15.312;2022-08-03T07:39:46;10.47;;;6.97;;
3647;SDS011;1840;48.892;15.312;2022-08-03T07:42:14;10.17;;;6.60;;
3647;SDS011;1840;48.892;15.312;2022-08-03T07:44:43;9.93;;;5.80;;
3647;SDS011;1840;48.892;15.312;2022-08-03T07:47:16;13.20;;;6.77;;
3647;SDS011;1840;48.892;15.312;2022-08-03T07:49:48;8.70;;;5.90;;
3647;SDS011;1840;48.892;15.312;2022-08-03T07:52:17;13.50;;;6.67;;
3647;SDS011;1840;48.892;15.312;2022-08-03T07:55:03;9.27;;;6.20;;
3647;SDS011;1840;48.892;15.312;2022-08-03T07:57:32;15.33;;;6.07;;
3647;SDS011;1840;48.892;15.312;2022-08-03T08:00:01;11.70;;;5.60;;
3647;SDS011;1840;48.892;15.312;2022-08-03T08:02:30;8.43;;;5.27;;
3647;SDS011;1840;48.892;15.312;2022-08-03T08:04:58;14.27;;;6.00;;
3647;SDS011;1840;48.892;15.312;2022-08-03T08:07:32;10.33;;;6.50;;
3647;SDS011;1840;48.892;15.312;2022-08-03T08:10:00;7.00;;;5.10;;
3647;SDS011;1840;48.892;15.312;2022-08-03T08:12:28;8.77;;;5.33;;
3647;SDS011;1840;48.892;15.312;2022-08-03T08:14:56;6.90;;;4.83;;
3647;SDS011;1840;48.892;15.312;2022-08-03T08:17:25;6.10;;;4.70;;
3647;SDS011;1840;48.892;15.312;2022-08-03T08:19:53;8.00;;;5.03;;
3647;SDS011;1840;48.892;15.312;2022-08-03T08:22:24;11.73;;;4.33;;
3647;SDS011;1840;48.892;15.312;2022-08-03T08:24:57;6.90;;;4.67;;
3647;SDS011;1840;48.892;15.312;2022-08-03T08:27:27;13.13;;;4.97;;
3647;SDS011;1840;48.892;15.312;2022-08-03T08:30:16;6.80;;;4.90;;
3647;SDS011;1840;48.892;15.312;2022-08-03T08:32:45;10.93;;;4.77;;
3647;SDS011;1840;48.892;15.312;2022-08-03T08:35:14;5.63;;;4.30;;
3647;SDS011;1840;48.892;15.312;2022-08-03T08:37:43;7.00;;;4.83;;
3647;SDS011;1840;48.892;15.312;2022-08-03T08:40:17;13.60;;;5.00;;
3647;SDS011;1840;48.892;15.312;2022-08-03T08:42:48;8.97;;;4.50;;
3647;SDS011;1840;48.892;15.312;2022-08-03T08:45:24;6.80;;;3.90;;
3647;SDS011;1840;48.892;15.312;2022-08-03T08:47:53;10.03;;;4.60;;
3647;SDS011;1840;48.892;15.312;2022-08-03T08:50:29;9.07;;;3.93;;
3647;SDS011;1840;48.892;15.312;2022-08-03T08:52:59;7.17;;;3.73;;
3647;SDS011;1840;48.892;15.312;2022-08-03T08:55:30;5.73;;;3.43;;
3647;SDS011;1840;48.892;15.312;2022-08-03T08:58:20;6.30;;;3.90;;
3647;SDS011;1840;48.892;15.312;2022-08-03T09:00:49;6.80;;;3.80;;
3647;SDS011;1840;48.892;15.312;2022-08-03T09:03:18;6.13;;;3.30;;
3647;SDS011;1840;48.892;15.312;2022-08-03T09:05:56;4.80;;;3.40;;
3647;SDS011;1840;48.892;15.312;2022-08-03T09:08:25;11.03;;;3.07;;
3647;SDS011;1840;48.892;15.312;2022-08-03T09:10:56;4.80;;;2.43;;
3647;SDS011;1840;48.892;15.312;2022-08-03T09:13:24;6.40;;;2.40;;
3647;SDS011;1840;48.892;15.312;2022-08-03T09:16:08;4.30;;;2.80;;
3647;SDS011;1840;48.892;15.312;2022-08-03T09:18:37;3.80;;;1.80;;
3647;SDS011;1840;48.892;15.312;2022-08-03T09:21:17;4.70;;;1.90;;
3647;SDS011;1840;48.892;15.312;2022-08-03T09:24:02;4.53;;;1.83;;
3647;SDS011;1840;48.892;15.312;2022-08-03T09:26:49;4.50;;;2.00;;
3647;SDS011;1840;48.892;15.312;2022-08-03T09:29:19;8.63;;;1.60;;
3647;SDS011;1840;48.892;15.312;2022-08-03T09:31:48;4.33;;;1.50;;
3647;SDS011;1840;48.892;15.312;2022-08-03T09:34:25;3.60;;;1.83;;
3647;SDS011;1840;48.892;15.312;2022-08-03T09:36:54;5.63;;;1.87;;
3647;SDS011;1840;48.892;15.312;2022-08-03T09:39:23;7.57;;;1.80;;
3647;SDS011;1840;48.892;15.312;2022-08-03T09:42:09;5.60;;;1.97;;
3647;SDS011;1840;48.892;15.312;2022-08-03T09:44:41;4.77;;;2.27;;
3647;SDS011;1840;48.892;15.312;2022-08-03T09:47:11;6.00;;;2.07;;
3647;SDS011;1840;48.892;15.312;2022-08-03T09:49:41;3.03;;;1.50;;
3647;SDS011;1840;48.892;15.312;2022-08-03T09:52:22;3.30;;;1.77;;
3647;SDS011;1840;48.892;15.312;2022-08-03T09:55:17;4.30;;;1.77;;
3647;SDS011;1840;48.892;15.312;2022-08-03T09:58:09;3.50;;;1.90;;
3647;SDS011;1840;48.892;15.312;2022-08-03T10:00:52;3.80;;;1.97;;
3647;SDS011;1840;48.892;15.312;2022-08-03T10:03:22;6.83;;;1.90;;
3647;SDS011;1840;48.892;15.312;2022-08-03T10:05:52;4.83;;;2.00;;
3647;SDS011;1840;48.892;15.312;2022-08-03T10:08:25;4.40;;;1.90;;
3647;SDS011;1840;48.892;15.312;2022-08-03T10:10:53;4.23;;;2.23;;
3647;SDS011;1840;48.892;15.312;2022-08-03T10:13:25;3.60;;;2.10;;
3647;SDS011;1840;48.892;15.312;2022-08-03T10:15:53;3.20;;;1.80;;
3647;SDS011;1840;48.892;15.312;2022-08-03T10:18:41;4.03;;;2.00;;
3647;SDS011;1840;48.892;15.312;2022-08-03T10:21:09;3.90;;;2.00;;
3647;SDS011;1840;48.892;15.312;2022-08-03T10:23:42;5.23;;;2.00;;
3647;SDS011;1840;48.892;15.312;2022-08-03T10:26:11;3.87;;;1.83;;
3647;SDS011;1840;48.892;15.312;2022-08-03T10:28:46;5.10;;;1.87;;
3647;SDS011;1840;48.892;15.312;2022-08-03T10:31:16;7.40;;;2.00;;
3647;SDS011;1840;48.892;15.312;2022-08-03T10:33:48;5.13;;;2.00;;
3647;SDS011;1840;48.892;15.312;2022-08-03T10:36:19;3.60;;;1.90;;
3647;SDS011;1840;48.892;15.312;2022-08-03T10:38:50;5.57;;;2.30;;
3647;SDS011;1840;48.892;15.312;2022-08-03T10:41:19;4.63;;;1.80;;
3647;SDS011;1840;48.892;15.312;2022-08-03T10:43:51;3.27;;;1.80;;
3647;SDS011;1840;48.892;15.312;2022-08-03T10:46:29;4.73;;;1.70;;
3647;SDS011;1840;48.892;15.312;2022-08-03T10:48:58;4.00;;;1.90;;
3647;SDS011;1840;48.892;15.312;2022-08-03T10:51:26;3.97;;;1.97;;
3647;SDS011;1840;48.892;15.312;2022-08-03T10:53:57;3.57;;;2.00;;
3647;SDS011;1840;48.892;15.312;2022-08-03T10:56:37;4.90;;;2.17;;
3647;SDS011;1840;48.892;15.312;2022-08-03T11:05:29;3.43;;;1.97;;
3647;SDS011;1840;48.892;15.312;2022-08-03T11:08:21;3.67;;;2.10;;
3647;SDS011;1840;48.892;15.312;2022-08-03T11:10:51;6.77;;;1.93;;
3647;SDS011;1840;48.892;15.312;2022-08-03T11:13:21;5.73;;;1.70;;
3647;SDS011;1840;48.892;15.312;2022-08-03T11:15:53;5.70;;;1.90;;
3647;SDS011;1840;48.892;15.312;2022-08-03T11:18:27;6.73;;;1.90;;
3647;SDS011;1840;48.892;15.312;2022-08-03T11:20:56;3.80;;;2.00;;
3647;SDS011;1840;48.892;15.312;2022-08-03T11:23:41;8.13;;;2.30;;
3647;SDS011;1840;48.892;15.312;2022-08-03T11:26:31;5.90;;;3.37;;
3647;SDS011;1840;48.892;15.312;2022-08-03T11:31:57;3.70;;;2.00;;
3647;SDS011;1840;48.892;15.312;2022-08-03T11:34:25;5.53;;;2.13;;
3647;SDS011;1840;48.892;15.312;2022-08-03T11:39:49;3.73;;;2.20;;
3647;SDS011;1840;48.892;15.312;2022-08-03T11:45:09;5.60;;;2.00;;
3647;SDS011;1840;48.892;15.312;2022-08-03T11:47:39;4.00;;;1.83;;
3647;SDS011;1840;48.892;15.312;2022-08-03T11:50:16;7.27;;;2.67;;
3647;SDS011;1840;48.892;15.312;2022-08-03T11:52:45;4.13;;;1.80;;
3647;SDS011;1840;48.892;15.312;2022-08-03T11:55:14;8.20;;;1.80;;
3647;SDS011;1840;48.892;15.312;2022-08-03T11:57:45;3.87;;;2.13;;
3647;SDS011;1840;48.892;15.312;2022-08-03T12:00:34;12.33;;;4.20;;
3647;SDS011;1840;48.892;15.312;2022-08-03T12:03:05;4.80;;;2.30;;
3647;SDS011;1840;48.892;15.312;2022-08-03T12:05:36;3.40;;;1.90;;
3647;SDS011;1840;48.892;15.312;2022-08-03T12:08:17;3.50;;;1.93;;
3647;SDS011;1840;48.892;15.312;2022-08-03T12:10:58;3.97;;;1.87;;
3647;SDS011;1840;48.892;15.312;2022-08-03T12:13:34;5.37;;;1.93;;
3647;SDS011;1840;48.892;15.312;2022-08-03T12:16:24;5.80;;;2.83;;
3647;SDS011;1840;48.892;15.312;2022-08-03T12:18:55;5.47;;;2.43;;
3647;SDS011;1840;48.892;15.312;2022-08-03T12:21:25;4.17;;;2.13;;
3647;SDS011;1840;48.892;15.312;2022-08-03T12:23:57;6.30;;;2.77;;
3647;SDS011;1840;48.892;15.312;2022-08-03T12:26:27;3.40;;;1.97;;
3647;SDS011;1840;48.892;15.312;2022-08-03T12:28:56;6.20;;;2.00;;
3647;SDS011;1840;48.892;15.312;2022-08-03T12:31:24;4.50;;;2.10;;
3647;SDS011;1840;48.892;15.312;2022-08-03T12:33:58;4.50;;;2.03;;
3647;SDS011;1840;48.892;15.312;2022-08-03T12:36:29;4.83;;;2.30;;
3647;SDS011;1840;48.892;15.312;2022-08-03T12:38:59;5.50;;;2.17;;
3647;SDS011;1840;48.892;15.312;2022-08-03T12:41:29;6.70;;;1.63;;
3647;SDS011;1840;48.892;15.312;2022-08-03T12:44:00;5.60;;;2.03;;
3647;SDS011;1840;48.892;15.312;2022-08-03T12:46:30;3.50;;;1.90;;
3647;SDS011;1840;48.892;15.312;2022-08-03T12:49:03;4.13;;;1.83;;
3647;SDS011;1840;48.892;15.312;2022-08-03T12:51:36;4.83;;;2.27;;
3647;SDS011;1840;48.892;15.312;2022-08-03T12:54:22;4.30;;;2.20;;
3647;SDS011;1840;48.892;15.312;2022-08-03T12:56:58;4.77;;;2.23;;
3647;SDS011;1840;48.892;15.312;2022-08-03T12:59:30;3.80;;;2.10;;
3647;SDS011;1840;48.892;15.312;2022-08-03T13:02:05;3.43;;;1.87;;
3647;SDS011;1840;48.892;15.312;2022-08-03T13:04:44;3.80;;;1.93;;
3647;SDS011;1840;48.892;15.312;2022-08-03T13:07:14;3.47;;;1.87;;
3647;SDS011;1840;48.892;15.312;2022-08-03T13:09:45;3.67;;;2.17;;
3647;SDS011;1840;48.892;15.312;2022-08-03T13:12:15;4.47;;;2.23;;
3647;SDS011;1840;48.892;15.312;2022-08-03T13:14:45;4.60;;;1.90;;
3647;SDS011;1840;48.892;15.312;2022-08-03T13:17:15;4.00;;;2.40;;
3647;SDS011;1840;48.892;15.312;2022-08-03T13:19:45;5.10;;;2.00;;
3647;SDS011;1840;48.892;15.312;2022-08-03T13:22:14;9.33;;;2.50;;
3647;SDS011;1840;48.892;15.312;2022-08-03T13:24:43;3.30;;;1.83;;
3647;SDS011;1840;48.892;15.312;2022-08-03T13:27:12;3.90;;;1.90;;
3647;SDS011;1840;48.892;15.312;2022-08-03T13:30:01;4.23;;;2.07;;
3647;SDS011;1840;48.892;15.312;2022-08-03T13:32:29;7.17;;;1.93;;
3647;SDS011;1840;48.892;15.312;2022-08-03T13:34:59;3.07;;;1.73;;
3647;SDS011;1840;48.892;15.312;2022-08-03T13:37:28;6.00;;;1.90;;
3647;SDS011;1840;48.892;15.312;2022-08-03T13:39:58;4.30;;;1.90;;
3647;SDS011;1840;48.892;15.312;2022-08-03T13:42:29;6.13;;;2.20;;
3647;SDS011;1840;48.892;15.312;2022-08-03T13:44:58;7.67;;;1.90;;
3647;SDS011;1840;48.892;15.312;2022-08-03T13:47:27;4.73;;;1.90;;
3647;SDS011;1840;48.892;15.312;2022-08-03T13:49:55;3.13;;;1.60;;
3647;SDS011;1840;48.892;15.312;2022-08-03T13:52:29;4.90;;;1.80;;
3647;SDS011;1840;48.892;15.312;2022-08-03T13:54:58;9.93;;;2.70;;
3647;SDS011;1840;48.892;15.312;2022-08-03T13:57:26;5.57;;;2.17;;
3647;SDS011;1840;48.892;15.312;2022-08-03T14:00:15;6.40;;;1.97;;
3647;SDS011;1840;48.892;15.312;2022-08-03T14:02:53;8.20;;;1.80;;
3647;SDS011;1840;48.892;15.312;2022-08-03T14:05:37;3.23;;;1.70;;
3647;SDS011;1840;48.892;15.312;2022-08-03T14:08:07;4.27;;;2.17;;
3647;SDS011;1840;48.892;15.312;2022-08-03T14:10:36;3.90;;;2.33;;
3647;SDS011;1840;48.892;15.312;2022-08-03T14:13:05;4.40;;;1.97;;
3647;SDS011;1840;48.892;15.312;2022-08-03T14:15:34;4.53;;;2.00;;
3647;SDS011;1840;48.892;15.312;2022-08-03T14:18:04;3.83;;;1.90;;
3647;SDS011;1840;48.892;15.312;2022-08-03T14:20:41;4.17;;;2.20;;
3647;SDS011;1840;48.892;15.312;2022-08-03T14:23:20;4.40;;;2.30;;
3647;SDS011;1840;48.892;15.312;2022-08-03T14:25:49;3.97;;;1.90;;
3647;SDS011;1840;48.892;15.312;2022-08-03T14:28:19;4.10;;;2.30;;
3647;SDS011;1840;48.892;15.312;2022-08-03T14:30:49;4.27;;;1.93;;
3647;SDS011;1840;48.892;15.312;2022-08-03T14:33:17;3.77;;;2.00;;
3647;SDS011;1840;48.892;15.312;2022-08-03T14:35:45;5.30;;;1.90;;
3647;SDS011;1840;48.892;15.312;2022-08-03T14:38:13;3.37;;;1.80;;
3647;SDS011;1840;48.892;15.312;2022-08-03T14:40:43;6.53;;;2.10;;
3647;SDS011;1840;48.892;15.312;2022-08-03T14:43:11;7.00;;;1.83;;
3647;SDS011;1840;48.892;15.312;2022-08-03T14:45:39;3.40;;;1.83;;
3647;SDS011;1840;48.892;15.312;2022-08-03T14:48:08;4.63;;;2.17;;
3647;SDS011;1840;48.892;15.312;2022-08-03T14:50:57;4.03;;;1.90;;
3647;SDS011;1840;48.892;15.312;2022-08-03T14:53:25;3.30;;;1.87;;
3647;SDS011;1840;48.892;15.312;2022-08-03T14:55:56;4.23;;;2.00;;
3647;SDS011;1840;48.892;15.312;2022-08-03T14:58:24;4.83;;;2.10;;
3647;SDS011;1840;48.892;15.312;2022-08-03T15:00:53;5.53;;;2.30;;
3647;SDS011;1840;48.892;15.312;2022-08-03T15:03:21;5.90;;;1.83;;
3647;SDS011;1840;48.892;15.312;2022-08-03T15:05:51;4.20;;;2.17;;
3647;SDS011;1840;48.892;15.312;2022-08-03T15:08:20;6.90;;;2.00;;
3647;SDS011;1840;48.892;15.312;2022-08-03T15:10:48;3.83;;;1.97;;
3647;SDS011;1840;48.892;15.312;2022-08-03T15:13:18;3.80;;;1.93;;
3647;SDS011;1840;48.892;15.312;2022-08-03T15:15:47;3.50;;;2.00;;
3647;SDS011;1840;48.892;15.312;2022-08-03T15:18:16;6.07;;;2.03;;
3647;SDS011;1840;48.892;15.312;2022-08-03T15:20:46;4.90;;;2.10;;
3647;SDS011;1840;48.892;15.312;2022-08-03T15:23:16;3.80;;;1.70;;
3647;SDS011;1840;48.892;15.312;2022-08-03T15:25:45;3.20;;;1.67;;
3647;SDS011;1840;48.892;15.312;2022-08-03T15:28:36;5.37;;;1.70;;
3647;SDS011;1840;48.892;15.312;2022-08-03T15:31:04;3.57;;;1.70;;
3647;SDS011;1840;48.892;15.312;2022-08-03T15:33:33;4.80;;;1.80;;
3647;SDS011;1840;48.892;15.312;2022-08-03T15:36:01;3.47;;;1.87;;
3647;SDS011;1840;48.892;15.312;2022-08-03T15:38:38;5.32;;;2.06;;